EWG173 EHAM-EDLW
Flight info
| Callsign | EWG173 |
|---|---|
| Flight time | 0h 29m |
| Altitude | 19000 |
| Route | ARNEM L620 SONEB Z841 DOMEG DOMEG2A |
| Aircraft | A320/M-SDE3FGHIRWY/LB1 |
Departure
| Time | 2026-05-07 21:04 |
|---|---|
| Airport | Amsterdam Airport Schiphol (EHAM) |
Arrival
| Time | 2026-05-07 21:33 |
|---|---|
| Airport | Dortmund Airport (EDLW) |
| Time | Latitude | Longitude | Altitude | Speed | Heading |
|---|---|---|---|---|---|
| 2026-05-07 20:46 | 52.30612 | 4.74425 | 0 ft | 0 kts | 94° |
| 2026-05-07 20:56 | 52.30613 | 4.74402 | -1 ft | 2 kts | 94° |
| 2026-05-07 20:57 | 52.30614 | 4.74374 | -1 ft | 2 kts | 94° |
| 2026-05-07 20:57 | 52.30620 | 4.74348 | -1 ft | 2 kts | 159° |
| 2026-05-07 20:57 | 52.30627 | 4.74344 | -1 ft | 0 kts | 184° |
| 2026-05-07 20:58 | 52.30609 | 4.74342 | -1 ft | 6 kts | 184° |
| 2026-05-07 20:58 | 52.30575 | 4.74326 | -1 ft | 6 kts | 208° |
| 2026-05-07 20:59 | 52.30550 | 4.74256 | -1 ft | 7 kts | 248° |
| 2026-05-07 20:59 | 52.30514 | 4.74207 | -1 ft | 7 kts | 203° |
| 2026-05-07 20:59 | 52.30473 | 4.74193 | -1 ft | 6 kts | 185° |
| 2026-05-07 20:59 | 52.30400 | 4.74192 | -1 ft | 14 kts | 183° |
| 2026-05-07 21:00 | 52.30316 | 4.74153 | -1 ft | 12 kts | 200° |
| 2026-05-07 21:00 | 52.30233 | 4.74103 | -1 ft | 15 kts | 200° |
| 2026-05-07 21:00 | 52.30115 | 4.74051 | -1 ft | 19 kts | 193° |
| 2026-05-07 21:00 | 52.30006 | 4.73951 | -1 ft | 17 kts | 225° |
| 2026-05-07 21:01 | 52.29945 | 4.73794 | -1 ft | 16 kts | 244° |
| 2026-05-07 21:01 | 52.29912 | 4.73629 | -1 ft | 15 kts | 263° |
| 2026-05-07 21:01 | 52.29912 | 4.73543 | -1 ft | 5 kts | 273° |
| 2026-05-07 21:01 | 52.29929 | 4.73428 | -1 ft | 12 kts | 309° |
| 2026-05-07 21:02 | 52.30003 | 4.73420 | -1 ft | 13 kts | 28° |
| 2026-05-07 21:02 | 52.30096 | 4.73464 | -1 ft | 15 kts | 5° |
| 2026-05-07 21:02 | 52.30187 | 4.73526 | -2 ft | 15 kts | 63° |
| 2026-05-07 21:02 | 52.30201 | 4.73703 | -2 ft | 16 kts | 68° |
| 2026-05-07 21:03 | 52.30262 | 4.73748 | -4 ft | 5 kts | 1° |
| 2026-05-07 21:03 | 52.30408 | 4.73756 | -3 ft | 53 kts | 3° |
| 2026-05-07 21:03 | 52.31005 | 4.73814 | 0 ft | 117 kts | 3° |
| 2026-05-07 21:03 | 52.31993 | 4.73908 | 26 ft | 163 kts | 3° |
| 2026-05-07 21:04 | 52.33127 | 4.74005 | 632 ft | 166 kts | 6° |
| 2026-05-07 21:04 | 52.34273 | 4.74394 | 1263 ft | 170 kts | 21° |
| 2026-05-07 21:04 | 52.35377 | 4.75101 | 1957 ft | 171 kts | 26° |
| 2026-05-07 21:04 | 52.36501 | 4.75881 | 2519 ft | 179 kts | 26° |
| 2026-05-07 21:05 | 52.37638 | 4.76739 | 3054 ft | 187 kts | 30° |
| 2026-05-07 21:05 | 52.38778 | 4.77959 | 3488 ft | 200 kts | 39° |
| 2026-05-07 21:05 | 52.39820 | 4.79540 | 3880 ft | 217 kts | 49° |
| 2026-05-07 21:05 | 52.40814 | 4.81609 | 4307 ft | 238 kts | 58° |
| 2026-05-07 21:06 | 52.41639 | 4.84063 | 4869 ft | 254 kts | 68° |
| 2026-05-07 21:06 | 52.42198 | 4.86885 | 5520 ft | 266 kts | 81° |
| 2026-05-07 21:06 | 52.42371 | 4.89928 | 6333 ft | 271 kts | 90° |
| 2026-05-07 21:06 | 52.42407 | 4.93009 | 7131 ft | 276 kts | 91° |
| 2026-05-07 21:07 | 52.42202 | 4.96139 | 7951 ft | 278 kts | 107° |
| 2026-05-07 21:07 | 52.41424 | 4.99045 | 8764 ft | 281 kts | 124° |
| 2026-05-07 21:07 | 52.40146 | 5.01464 | 9595 ft | 283 kts | 141° |
| 2026-05-07 21:07 | 52.38544 | 5.03374 | 10357 ft | 288 kts | 146° |
| 2026-05-07 21:08 | 52.36838 | 5.05337 | 10629 ft | 312 kts | 144° |
| 2026-05-07 21:08 | 52.35131 | 5.07727 | 10831 ft | 336 kts | 136° |
| 2026-05-07 21:08 | 52.33574 | 5.10752 | 10980 ft | 360 kts | 126° |
| 2026-05-07 21:08 | 52.32279 | 5.14392 | 11104 ft | 382 kts | 115° |
| 2026-05-07 21:09 | 52.31282 | 5.18503 | 11463 ft | 393 kts | 111° |
| 2026-05-07 21:09 | 52.30298 | 5.22706 | 12045 ft | 398 kts | 111° |
| 2026-05-07 21:09 | 52.29291 | 5.26948 | 12648 ft | 403 kts | 112° |
| 2026-05-07 21:09 | 52.28263 | 5.31231 | 13259 ft | 407 kts | 112° |
| 2026-05-07 21:10 | 52.27221 | 5.35550 | 13873 ft | 411 kts | 112° |
| 2026-05-07 21:10 | 52.26164 | 5.39914 | 14415 ft | 415 kts | 112° |
| 2026-05-07 21:10 | 52.25100 | 5.44306 | 14954 ft | 418 kts | 112° |
| 2026-05-07 21:10 | 52.24029 | 5.48732 | 15513 ft | 420 kts | 112° |
| 2026-05-07 21:11 | 52.22955 | 5.53176 | 16068 ft | 423 kts | 112° |
| 2026-05-07 21:11 | 52.21875 | 5.57651 | 16600 ft | 426 kts | 112° |
| 2026-05-07 21:11 | 52.19691 | 5.66692 | 17594 ft | 431 kts | 112° |
| 2026-05-07 21:12 | 52.18587 | 5.71248 | 18065 ft | 434 kts | 112° |
| 2026-05-07 21:12 | 52.17471 | 5.75834 | 18498 ft | 437 kts | 112° |
| 2026-05-07 21:12 | 52.16346 | 5.80444 | 18890 ft | 439 kts | 112° |
| 2026-05-07 21:12 | 52.15213 | 5.85071 | 19070 ft | 441 kts | 112° |
| 2026-05-07 21:13 | 52.14077 | 5.89703 | 19112 ft | 441 kts | 112° |
| 2026-05-07 21:13 | 52.12939 | 5.94334 | 19109 ft | 441 kts | 112° |
| 2026-05-07 21:13 | 52.11796 | 5.98975 | 19111 ft | 442 kts | 113° |
| 2026-05-07 21:13 | 52.10648 | 6.03616 | 19111 ft | 443 kts | 113° |
| 2026-05-07 21:14 | 52.09651 | 6.08349 | 19110 ft | 453 kts | 105° |
| 2026-05-07 21:14 | 52.09038 | 6.13466 | 19111 ft | 456 kts | 100° |
| 2026-05-07 21:14 | 52.08523 | 6.18490 | 19107 ft | 457 kts | 100° |
| 2026-05-07 21:14 | 52.07999 | 6.23589 | 19106 ft | 457 kts | 100° |
| 2026-05-07 21:15 | 52.07472 | 6.28681 | 19100 ft | 457 kts | 100° |
| 2026-05-07 21:15 | 52.06940 | 6.33778 | 19102 ft | 457 kts | 100° |
| 2026-05-07 21:15 | 52.06401 | 6.38873 | 19099 ft | 457 kts | 101° |
| 2026-05-07 21:15 | 52.05856 | 6.43962 | 19102 ft | 457 kts | 101° |
| 2026-05-07 21:16 | 52.05309 | 6.49050 | 19107 ft | 457 kts | 101° |
| 2026-05-07 21:16 | 52.04764 | 6.54135 | 19107 ft | 457 kts | 101° |
| 2026-05-07 21:16 | 52.04220 | 6.59221 | 19103 ft | 457 kts | 101° |
| 2026-05-07 21:16 | 52.03675 | 6.64309 | 19107 ft | 457 kts | 101° |
| 2026-05-07 21:17 | 52.03126 | 6.69392 | 19106 ft | 457 kts | 101° |
| 2026-05-07 21:17 | 52.02423 | 6.74410 | 19107 ft | 456 kts | 108° |
| 2026-05-07 21:17 | 52.01235 | 6.79181 | 19109 ft | 455 kts | 118° |
| 2026-05-07 21:17 | 51.99645 | 6.83613 | 19112 ft | 455 kts | 122° |
| 2026-05-07 21:18 | 51.97991 | 6.87981 | 19114 ft | 455 kts | 122° |
| 2026-05-07 21:18 | 51.96335 | 6.92358 | 19113 ft | 455 kts | 122° |
| 2026-05-07 21:18 | 51.94680 | 6.96737 | 19113 ft | 456 kts | 122° |
| 2026-05-07 21:18 | 51.93024 | 7.01115 | 19115 ft | 456 kts | 122° |
| 2026-05-07 21:19 | 51.91368 | 7.05491 | 19118 ft | 456 kts | 122° |
| 2026-05-07 21:19 | 51.89711 | 7.09860 | 19117 ft | 456 kts | 122° |
| 2026-05-07 21:19 | 51.88047 | 7.14230 | 19118 ft | 456 kts | 122° |
| 2026-05-07 21:19 | 51.86382 | 7.18587 | 19112 ft | 455 kts | 123° |
| 2026-05-07 21:20 | 51.84724 | 7.22914 | 18817 ft | 447 kts | 123° |
| 2026-05-07 21:20 | 51.83145 | 7.27043 | 18513 ft | 435 kts | 122° |
| 2026-05-07 21:20 | 51.81429 | 7.31058 | 17969 ft | 433 kts | 133° |
| 2026-05-07 21:20 | 51.79106 | 7.34162 | 17430 ft | 427 kts | 152° |
| 2026-05-07 21:21 | 51.76418 | 7.35892 | 16901 ft | 420 kts | 169° |
| 2026-05-07 21:21 | 51.73527 | 7.36304 | 16385 ft | 416 kts | 181° |
| 2026-05-07 21:21 | 51.70648 | 7.36309 | 15692 ft | 407 kts | 181° |
| 2026-05-07 21:21 | 51.67885 | 7.36080 | 14948 ft | 389 kts | 187° |
| 2026-05-07 21:22 | 51.65248 | 7.35561 | 14217 ft | 375 kts | 188° |
| 2026-05-07 21:22 | 51.62705 | 7.35039 | 13450 ft | 362 kts | 188° |
| 2026-05-07 21:22 | 51.60234 | 7.34526 | 12654 ft | 354 kts | 188° |
| 2026-05-07 21:22 | 51.57808 | 7.34013 | 11878 ft | 350 kts | 188° |
| 2026-05-07 21:23 | 51.55411 | 7.33498 | 11118 ft | 346 kts | 188° |
| 2026-05-07 21:23 | 51.53069 | 7.32895 | 10379 ft | 336 kts | 195° |
| 2026-05-07 21:23 | 51.50860 | 7.31846 | 9615 ft | 327 kts | 198° |
| 2026-05-07 21:23 | 51.48719 | 7.30738 | 8817 ft | 320 kts | 198° |
| 2026-05-07 21:24 | 51.46623 | 7.29647 | 8040 ft | 314 kts | 198° |
| 2026-05-07 21:24 | 51.44565 | 7.28574 | 7279 ft | 309 kts | 198° |
| 2026-05-07 21:24 | 51.42536 | 7.27516 | 6532 ft | 305 kts | 198° |
| 2026-05-07 21:24 | 51.40534 | 7.26471 | 5757 ft | 301 kts | 198° |
| 2026-05-07 21:25 | 51.38655 | 7.25094 | 4982 ft | 295 kts | 217° |
| 2026-05-07 21:25 | 51.37120 | 7.22957 | 4200 ft | 291 kts | 224° |
| 2026-05-07 21:25 | 51.35673 | 7.20730 | 3441 ft | 287 kts | 224° |
| 2026-05-07 21:25 | 51.34230 | 7.18618 | 3085 ft | 275 kts | 213° |
| 2026-05-07 21:26 | 51.32492 | 7.17552 | 2995 ft | 266 kts | 185° |
| 2026-05-07 21:26 | 51.30684 | 7.17957 | 3002 ft | 264 kts | 156° |
| 2026-05-07 21:26 | 51.29272 | 7.19646 | 3001 ft | 249 kts | 126° |
| 2026-05-07 21:26 | 51.28614 | 7.22147 | 3002 ft | 246 kts | 95° |
| 2026-05-07 21:27 | 51.28848 | 7.24738 | 2997 ft | 230 kts | 63° |
| 2026-05-07 21:27 | 51.29778 | 7.26749 | 3001 ft | 222 kts | 47° |
| 2026-05-07 21:27 | 51.30914 | 7.28325 | 3001 ft | 215 kts | 36° |
| 2026-05-07 21:27 | 51.32127 | 7.29707 | 3001 ft | 214 kts | 35° |
| 2026-05-07 21:28 | 51.33345 | 7.31073 | 3003 ft | 214 kts | 35° |
| 2026-05-07 21:28 | 51.34563 | 7.32436 | 3005 ft | 214 kts | 35° |
| 2026-05-07 21:28 | 51.35778 | 7.33801 | 3005 ft | 213 kts | 36° |
| 2026-05-07 21:28 | 51.36988 | 7.35162 | 3007 ft | 213 kts | 35° |
| 2026-05-07 21:29 | 51.38196 | 7.36521 | 3001 ft | 212 kts | 35° |
| 2026-05-07 21:29 | 51.39403 | 7.37879 | 3006 ft | 212 kts | 36° |
| 2026-05-07 21:29 | 51.40610 | 7.39240 | 3007 ft | 212 kts | 36° |
| 2026-05-07 21:29 | 51.41818 | 7.40602 | 3007 ft | 212 kts | 36° |
| 2026-05-07 21:30 | 51.43024 | 7.41965 | 3009 ft | 212 kts | 36° |
| 2026-05-07 21:30 | 51.44231 | 7.43328 | 3008 ft | 212 kts | 36° |
| 2026-05-07 21:30 | 51.45422 | 7.44672 | 3004 ft | 213 kts | 36° |
| 2026-05-07 21:30 | 51.46548 | 7.46244 | 2583 ft | 220 kts | 57° |
| 2026-05-07 21:31 | 51.47320 | 7.48402 | 2220 ft | 221 kts | 61° |
| 2026-05-07 21:31 | 51.48056 | 7.50511 | 1914 ft | 211 kts | 61° |
| 2026-05-07 21:31 | 51.48756 | 7.52497 | 1628 ft | 199 kts | 61° |
| 2026-05-07 21:31 | 51.49412 | 7.54353 | 1381 ft | 187 kts | 61° |
| 2026-05-07 21:32 | 51.50030 | 7.56104 | 1090 ft | 173 kts | 61° |
| 2026-05-07 21:32 | 51.50589 | 7.57689 | 879 ft | 155 kts | 62° |
| 2026-05-07 21:32 | 51.51096 | 7.59128 | 655 ft | 142 kts | 61° |
| 2026-05-07 21:32 | 51.51568 | 7.60457 | 469 ft | 133 kts | 62° |
| 2026-05-07 21:33 | 51.51979 | 7.61639 | 415 ft | 100 kts | 61° |
| 2026-05-07 21:33 | 51.52172 | 7.62188 | 414 ft | 21 kts | 60° |
| 2026-05-07 21:33 | 51.52188 | 7.62302 | 410 ft | 9 kts | 121° |
| 2026-05-07 21:33 | 51.52138 | 7.62358 | 415 ft | 9 kts | 152° |
| 2026-05-07 21:34 | 51.52078 | 7.62390 | 414 ft | 10 kts | 188° |
| 2026-05-07 21:34 | 51.52014 | 7.62286 | 416 ft | 17 kts | 238° |
| 2026-05-07 21:34 | 51.51961 | 7.62132 | 417 ft | 16 kts | 241° |
| 2026-05-07 21:34 | 51.51895 | 7.61943 | 413 ft | 20 kts | 240° |
| 2026-05-07 21:35 | 51.51829 | 7.61760 | 417 ft | 18 kts | 240° |
| 2026-05-07 21:35 | 51.51781 | 7.61622 | 425 ft | 10 kts | 241° |
| 2026-05-07 21:35 | 51.51730 | 7.61483 | 424 ft | 17 kts | 232° |
| 2026-05-07 21:35 | 51.51677 | 7.61482 | 427 ft | 6 kts | 152° |
| 2026-05-07 21:36 | 51.51657 | 7.61499 | 430 ft | 0 kts | 152° |